Time;durP1;ratioP1;P1;durP2;ratioP2;P2;SDS_P1;SDS_P2;PMS_P1;PMS_P2;Temp;Humidity;BMP_temperature;BMP_pressure;BME280_temperature;BME280_humidity;BME280_pressure;Samples;Min_cycle;Max_cycle;Signal;HPM_P1;HPM_P2
2023/10/15 00:00:20;;;;;;;8.40;1.20;;;13.40;99.90;;;;;;4989859;28;20084;-71
2023/10/15 00:02:48;;;;;;;11.00;1.90;;;13.40;99.90;;;;;;4989667;28;20026;-68
2023/10/15 00:05:20;;;;;;;14.63;2.40;;;13.30;99.90;;;;;;4989668;28;20030;-68
2023/10/15 00:07:47;;;;;;;14.25;1.50;;;13.20;99.90;;;;;;4989773;28;20026;-68
2023/10/15 00:10:15;;;;;;;8.27;1.73;;;13.20;99.90;;;;;;4984436;28;20113;-68
2023/10/15 00:12:45;;;;;;;9.35;1.92;;;13.20;99.90;;;;;;4973404;28;20038;-70
2023/10/15 00:15:23;;;;;;;8.88;1.77;;;13.20;99.90;;;;;;4988432;28;20029;-69
2023/10/15 00:17:53;;;;;;;13.18;1.95;;;13.10;99.90;;;;;;4989459;28;20038;-69
2023/10/15 00:20:21;;;;;;;11.73;2.05;;;13.00;99.90;;;;;;4989411;28;20030;-70
2023/10/15 00:22:49;;;;;;;15.23;2.33;;;13.00;99.90;;;;;;4989864;28;20041;-68
2023/10/15 00:25:17;;;;;;;7.88;1.77;;;12.90;99.90;;;;;;4989430;28;20033;-67
2023/10/15 00:27:52;;;;;;;17.02;1.83;;;12.70;99.90;;;;;;4989263;28;20542;-71
2023/10/15 00:30:19;;;;;;;9.57;2.00;;;12.70;99.90;;;;;;4987088;28;20034;-69
2023/10/15 00:32:49;;;;;;;;;;;12.70;99.90;;;;;;4989190;28;20625;-69
2023/10/15 00:35:19;;;;;;;9.95;1.92;;;12.60;99.90;;;;;;4989074;28;20283;-68
2023/10/15 00:37:57;;;;;;;6.72;1.70;;;12.60;99.90;;;;;;4989280;28;20038;-67
2023/10/15 00:40:25;;;;;;;14.02;2.30;;;12.50;99.90;;;;;;4988915;28;20079;-70
2023/10/15 00:42:52;;;;;;;6.30;1.63;;;12.50;99.90;;;;;;4988368;28;20034;-68
2023/10/15 00:45:18;;;;;;;;;;;12.50;99.90;;;;;;4989001;28;20041;-71
2023/10/15 00:50:38;;;;;;;13.35;1.70;;;12.40;99.90;;;;;;4988426;28;20039;-67
2023/10/15 00:53:21;;;;;;;6.88;2.15;;;12.30;99.90;;;;;;4988557;28;20775;-69
2023/10/15 00:55:49;;;;;;;3.38;1.52;;;12.30;99.90;;;;;;4988117;28;20815;-67
2023/10/15 00:58:21;;;;;;;10.77;2.13;;;12.10;99.90;;;;;;4988835;28;20022;-72
2023/10/15 01:01:00;;;;;;;11.05;2.50;;;12.20;99.90;;;;;;4989086;28;20492;-71
2023/10/15 01:03:33;;;;;;;9.88;1.80;;;12.30;99.90;;;;;;4988662;28;20050;-72
2023/10/15 01:06:05;;;;;;;10.40;1.90;;;12.20;99.90;;;;;;4989196;28;20035;-71
2023/10/15 01:08:38;;;;;;;6.47;1.50;;;12.10;99.90;;;;;;4988916;28;20026;-69
2023/10/15 01:11:11;;;;;;;7.25;1.83;;;12.10;99.90;;;;;;4979418;28;20089;-68
2023/10/15 01:13:38;;;;;;;6.93;2.00;;;12.10;99.90;;;;;;4988690;28;20037;-70
2023/10/15 01:16:08;;;;;;;8.18;1.90;;;12.10;99.90;;;;;;4988407;28;20030;-67
2023/10/15 01:18:35;;;;;;;10.95;2.15;;;12.10;99.90;;;;;;4988622;28;20109;-67
2023/10/15 01:21:01;;;;;;;8.73;1.73;;;12.00;99.90;;;;;;4998303;28;20034;-67
2023/10/15 01:23:43;;;;;;;4.32;1.73;;;11.90;99.90;;;;;;5007417;28;20096;-67
2023/10/15 01:26:23;;;;;;;12.75;1.65;;;11.80;99.90;;;;;;5008173;28;20038;-67
2023/10/15 01:28:49;;;;;;;5.65;1.95;;;;;;;;;;5008503;28;20037;-67
2023/10/15 01:31:15;;;;;;;9.23;2.17;;;11.70;99.90;;;;;;5007760;28;20084;-67
2023/10/15 01:33:49;;;;;;;7.45;2.38;;;11.70;99.90;;;;;;5008031;28;20113;-68
2023/10/15 01:36:27;;;;;;;9.23;1.88;;;11.70;99.90;;;;;;5007595;28;20461;-68
2023/10/15 01:39:09;;;;;;;10.07;1.98;;;11.70;99.90;;;;;;5007528;28;20034;-68
2023/10/15 01:41:39;;;;;;;6.20;1.55;;;11.80;99.90;;;;;;5006829;28;20034;-68
2023/10/15 01:44:06;;;;;;;9.85;2.08;;;11.70;99.90;;;;;;4987572;28;20506;-68
2023/10/15 01:49:32;;;;;;;9.18;2.60;;;11.70;99.90;;;;;;4988143;28;20033;-67
2023/10/15 01:52:09;;;;;;;4.90;1.50;;;11.80;99.90;;;;;;4987940;28;20061;-69
2023/10/15 01:54:36;;;;;;;13.27;1.85;;;11.80;99.90;;;;;;4987923;28;20053;-67
2023/10/15 01:57:06;;;;;;;13.10;2.25;;;11.90;99.90;;;;;;4987956;28;20491;-67
2023/10/15 01:59:45;;;;;;;11.30;2.05;;;11.70;99.90;;;;;;4986481;28;20074;-69
2023/10/15 02:02:17;;;;;;;4.38;1.30;;;11.70;99.90;;;;;;4988724;28;20424;-67
2023/10/15 02:04:47;;;;;;;11.85;2.33;;;11.80;99.90;;;;;;4988033;28;20375;-67
2023/10/15 02:07:19;;;;;;;7.95;2.08;;;11.90;99.90;;;;;;4988286;28;20125;-67
2023/10/15 02:09:46;;;;;;;8.05;2.08;;;11.90;99.90;;;;;;4988827;28;20046;-68
2023/10/15 02:12:18;;;;;;;18.52;2.60;;;12.00;99.90;;;;;;4990584;28;20518;-70
2023/10/15 02:14:47;;;;;;;12.48;2.05;;;12.00;99.90;;;;;;4991877;28;20506;-68
2023/10/15 02:17:19;;;;;;;8.50;2.25;;;12.10;99.90;;;;;;4992295;28;20116;-68
2023/10/15 02:19:47;;;;;;;10.40;2.05;;;12.10;99.90;;;;;;4992467;28;20069;-69
2023/10/15 02:22:13;;;;;;;17.52;3.10;;;12.20;99.90;;;;;;4992220;28;20041;-70
2023/10/15 02:24:46;;;;;;;7.22;2.28;;;12.20;99.90;;;;;;4991915;28;20044;-68
2023/10/15 02:27:18;;;;;;;15.38;1.95;;;12.30;99.90;;;;;;4992170;28;20042;-69
2023/10/15 02:29:49;;;;;;;13.63;2.40;;;12.30;99.90;;;;;;4992149;28;20034;-67
2023/10/15 02:32:27;;;;;;;9.80;1.85;;;12.00;99.90;;;;;;4991544;28;20064;-68
2023/10/15 02:34:54;;;;;;;7.80;2.20;;;11.90;99.90;;;;;;4991584;28;20034;-70
2023/10/15 02:37:23;;;;;;;;;;;11.70;99.90;;;;;;4991358;28;20037;-70
2023/10/15 02:39:52;;;;;;;7.13;1.67;;;11.90;99.90;;;;;;4991395;28;19905;-71
2023/10/15 02:42:31;;;;;;;10.55;2.25;;;12.00;99.90;;;;;;4991582;28;20038;-70
2023/10/15 02:45:01;;;;;;;9.65;2.45;;;12.00;99.90;;;;;;4991277;28;20061;-71
2023/10/15 02:47:41;;;;;;;8.38;2.10;;;11.80;99.90;;;;;;4991323;28;20645;-69
2023/10/15 02:50:09;;;;;;;12.52;2.28;;;11.80;99.90;;;;;;4990902;28;20088;-67
2023/10/15 02:52:35;;;;;;;7.78;2.17;;;11.80;99.90;;;;;;4987911;28;20041;-69
2023/10/15 02:55:10;;;;;;;5.40;2.37;;;11.90;99.90;;;;;;4977525;28;20023;-67
2023/10/15 02:57:38;;;;;;;16.27;1.98;;;11.70;99.90;;;;;;4986073;28;20030;-67
2023/10/15 03:00:28;;;;;;;9.88;2.25;;;11.60;99.90;;;;;;4982673;28;20533;-67
2023/10/15 03:02:57;;;;;;;6.88;1.65;;;11.70;99.90;;;;;;4979830;28;20090;-67
2023/10/15 03:05:30;;;;;;;9.40;2.13;;;11.60;99.90;;;;;;4982908;28;20030;-68
2023/10/15 03:07:56;;;;;;;10.13;2.50;;;11.50;99.90;;;;;;4991277;28;20459;-68
2023/10/15 03:10:22;;;;;;;7.53;1.70;;;11.40;99.90;;;;;;4992054;28;20026;-72
2023/10/15 03:12:50;;;;;;;11.32;2.53;;;11.50;99.90;;;;;;4991431;28;20034;-69
2023/10/15 03:15:17;;;;;;;12.18;2.40;;;11.40;99.90;;;;;;4991992;28;20026;-68
2023/10/15 03:17:43;;;;;;;7.90;2.47;;;11.40;99.90;;;;;;4991154;28;20026;-69
2023/10/15 03:22:44;;;;;;;4.93;2.10;;;11.40;99.90;;;;;;5006325;28;20049;-68
2023/10/15 03:25:13;;;;;;;13.73;2.63;;;11.30;99.90;;;;;;4973661;28;20498;-69
2023/10/15 03:27:47;;;;;;;5.93;1.83;;;11.20;99.90;;;;;;4973879;28;20080;-70
2023/10/15 03:30:15;;;;;;;4.60;1.90;;;11.20;99.90;;;;;;4990441;28;20062;-68
2023/10/15 03:32:44;;;;;;;9.52;2.05;;;11.30;99.90;;;;;;4990296;28;20610;-70
2023/10/15 03:35:27;;;;;;;8.38;1.90;;;11.20;99.90;;;;;;4990502;28;20042;-67
2023/10/15 03:37:59;;;;;;;12.57;2.22;;;11.30;99.90;;;;;;4989878;28;20045;-71
2023/10/15 03:40:46;;;;;;;12.27;2.63;;;11.20;99.90;;;;;;4990120;28;20444;-70
2023/10/15 03:43:20;;;;;;;9.05;1.90;;;11.30;99.90;;;;;;4990162;28;20042;-71
2023/10/15 03:45:52;;;;;;;13.18;2.13;;;11.20;99.90;;;;;;4990480;28;20030;-67
2023/10/15 03:48:29;;;;;;;5.47;2.08;;;11.20;99.90;;;;;;4990433;28;20128;-69
2023/10/15 03:50:55;;;;;;;15.82;2.22;;;11.20;99.90;;;;;;4988728;28;20030;-67
2023/10/15 03:53:29;;;;;;;8.73;2.28;;;11.20;99.90;;;;;;4989819;28;20039;-69
2023/10/15 03:55:58;;;;;;;4.88;1.80;;;11.00;99.90;;;;;;4990337;28;20026;-67
2023/10/15 03:58:25;;;;;;;14.10;2.53;;;11.10;99.90;;;;;;4989938;28;20035;-67
2023/10/15 04:01:06;;;;;;;9.50;2.53;;;11.10;99.90;;;;;;5021574;28;20061;-67
2023/10/15 04:03:35;;;;;;;8.90;1.83;;;11.10;99.90;;;;;;4990001;28;20042;-68
2023/10/15 04:06:01;;;;;;;13.10;2.20;;;11.00;99.90;;;;;;5021013;28;20548;-67
2023/10/15 04:08:31;;;;;;;7.03;2.05;;;11.00;99.90;;;;;;4989059;28;20030;-67
2023/10/15 04:11:00;;;;;;;12.73;2.08;;;10.90;99.90;;;;;;5021025;28;20050;-66
2023/10/15 04:13:27;;;;;;;6.43;1.92;;;10.80;99.90;;;;;;4989707;28;20109;-67
2023/10/15 04:15:56;;;;;;;6.93;2.80;;;10.90;99.90;;;;;;5021010;28;20406;-70
2023/10/15 04:18:23;;;;;;;12.50;2.22;;;10.60;99.90;;;;;;4989557;28;20491;-71
2023/10/15 04:20:49;;;;;;;;;;;10.80;99.90;;;;;;4990458;28;20109;-68
2023/10/15 04:23:30;;;;;;;10.73;3.63;;;10.80;99.90;;;;;;4989348;28;20004;-67
2023/10/15 04:25:59;;;;;;;13.93;2.53;;;10.80;99.90;;;;;;4987139;28;20041;-68
2023/10/15 04:28:25;;;;;;;6.70;2.40;;;10.80;99.90;;;;;;4973282;28;20038;-68
2023/10/15 04:30:51;;;;;;;12.83;2.97;;;10.80;99.90;;;;;;4970022;28;20034;-70
2023/10/15 04:33:20;;;;;;;11.50;2.65;;;10.60;99.90;;;;;;5000152;28;20069;-66
2023/10/15 04:35:48;;;;;;;7.00;1.55;;;10.60;99.90;;;;;;4969642;28;20031;-66
2023/10/15 04:38:27;;;;;;;5.35;1.95;;;10.70;99.90;;;;;;4969934;28;20023;-67
2023/10/15 04:43:25;;;;;;;10.90;2.33;;;10.80;99.90;;;;;;5009434;28;20084;-67
2023/10/15 04:45:54;;;;;;;10.25;2.22;;;10.60;99.90;;;;;;5008850;28;20034;-69
2023/10/15 04:48:26;;;;;;;8.27;2.10;;;10.70;99.90;;;;;;5009472;28;20095;-66
2023/10/15 04:50:52;;;;;;;7.82;2.45;;;10.80;99.90;;;;;;5008763;28;20030;-69
2023/10/15 04:55:51;;;;;;;14.20;2.53;;;10.80;99.90;;;;;;5008688;28;20029;-69
2023/10/15 04:58:17;;;;;;;12.50;2.90;;;10.80;99.90;;;;;;4992793;28;20038;-68
2023/10/15 05:00:47;;;;;;;8.90;2.38;;;10.80;99.90;;;;;;4989025;28;20057;-67
2023/10/15 05:03:14;;;;;;;7.05;2.33;;;10.50;99.90;;;;;;4988666;28;20046;-68
2023/10/15 05:05:42;;;;;;;13.60;3.72;;;10.30;99.90;;;;;;4988486;28;20397;-68
2023/10/15 05:08:11;;;;;;;6.55;2.17;;;10.50;99.90;;;;;;4989097;28;20113;-68
2023/10/15 05:10:38;;;;;;;7.18;2.38;;;10.50;99.90;;;;;;4988456;28;20057;-67
2023/10/15 05:13:04;;;;;;;6.90;2.05;;;10.50;99.90;;;;;;4989151;28;20077;-67
2023/10/15 05:15:30;;;;;;;7.03;1.73;;;10.60;99.90;;;;;;4988062;28;20026;-67
2023/10/15 05:17:55;;;;;;;5.17;1.77;;;10.70;99.90;;;;;;5019627;28;20034;-67
2023/10/15 05:20:21;;;;;;;8.43;2.10;;;10.70;99.90;;;;;;4995719;28;20113;-69
2023/10/15 05:22:48;;;;;;;12.95;2.88;;;10.80;99.90;;;;;;4989230;28;20088;-69
2023/10/15 05:25:17;;;;;;;7.43;2.25;;;10.90;99.90;;;;;;4983947;28;20521;-69
2023/10/15 05:27:49;;;;;;;5.72;1.73;;;10.90;99.90;;;;;;4983951;28;20410;-68
2023/10/15 05:30:15;;;;;;;8.57;1.98;;;10.80;99.90;;;;;;4989882;28;20414;-68
2023/10/15 05:32:44;;;;;;;10.30;2.65;;;10.70;99.90;;;;;;4983372;28;20089;-70
2023/10/15 05:35:10;;;;;;;6.00;1.50;;;10.70;99.90;;;;;;4986776;28;20045;-69
2023/10/15 05:37:36;;;;;;;9.57;1.83;;;10.80;99.90;;;;;;5015501;28;20073;-68
2023/10/15 05:40:03;;;;;;;9.48;2.15;;;10.80;99.90;;;;;;4983118;28;20038;-67
2023/10/15 05:42:29;;;;;;;15.23;2.90;;;10.80;99.90;;;;;;4995103;28;20554;-68
2023/10/15 05:44:56;;;;;;;7.95;2.17;;;10.80;99.90;;;;;;4991242;28;20033;-68
2023/10/15 05:47:21;;;;;;;;;;;10.90;99.90;;;;;;5024043;28;20038;-68
2023/10/15 05:49:48;;;;;;;8.18;2.47;;;10.80;99.90;;;;;;5001820;28;20545;-69
2023/10/15 05:52:13;;;;;;;10.50;2.13;;;10.80;99.90;;;;;;4981538;28;20034;-68
2023/10/15 05:54:39;;;;;;;12.30;3.43;;;10.70;99.90;;;;;;4983818;28;20542;-69
2023/10/15 05:57:07;;;;;;;12.73;2.00;;;10.70;99.90;;;;;;4983000;28;20085;-68
2023/10/15 05:59:35;;;;;;;11.13;2.55;;;10.70;99.90;;;;;;4983650;28;20442;-69
2023/10/15 06:02:02;;;;;;;6.60;2.20;;;10.70;99.90;;;;;;4985131;28;20030;-68
2023/10/15 06:04:27;;;;;;;9.55;2.10;;;10.70;99.90;;;;;;4985969;28;20026;-69
2023/10/15 06:06:54;;;;;;;7.75;2.08;;;10.70;99.90;;;;;;4984745;28;20425;-71
2023/10/15 06:09:20;;;;;;;9.27;2.45;;;10.70;99.90;;;;;;4984453;28;20117;-69
2023/10/15 06:11:46;;;;;;;4.72;2.10;;;10.50;99.90;;;;;;4980118;28;20122;-69
2023/10/15 06:14:12;;;;;;;7.03;1.60;;;10.40;99.90;;;;;;4984602;28;20161;-69
2023/10/15 06:16:37;;;;;;;5.33;2.17;;;10.30;99.90;;;;;;4985848;28;20046;-69
2023/10/15 06:19:03;;;;;;;11.70;2.30;;;10.50;99.90;;;;;;4984531;28;20435;-69
2023/10/15 06:21:29;;;;;;;9.43;2.70;;;10.60;99.90;;;;;;4986210;28;20031;-68
2023/10/15 06:23:55;;;;;;;6.57;2.55;;;10.60;99.90;;;;;;4985675;28;20030;-69
2023/10/15 06:26:20;;;;;;;10.40;2.50;;;10.70;99.90;;;;;;4987901;28;20041;-70
2023/10/15 06:28:46;;;;;;;13.77;2.40;;;10.60;99.90;;;;;;5013143;28;20122;-67
2023/10/15 06:31:11;;;;;;;10.80;2.53;;;10.60;99.90;;;;;;4990340;28;20030;-70
2023/10/15 06:33:40;;;;;;;8.10;2.30;;;10.70;99.90;;;;;;4982034;28;20561;-68
2023/10/15 06:36:09;;;;;;;5.82;2.42;;;10.70;99.90;;;;;;4991777;28;20156;-66
2023/10/15 06:38:34;;;;;;;10.98;2.50;;;10.80;99.90;;;;;;4988195;28;20494;-67
2023/10/15 06:41:00;;;;;;;11.83;2.43;;;10.90;99.90;;;;;;4979471;28;20025;-68
2023/10/15 06:43:29;;;;;;;12.75;2.15;;;10.90;99.90;;;;;;4981738;28;20711;-68
2023/10/15 06:45:54;;;;;;;12.32;2.45;;;11.00;99.90;;;;;;4986426;28;20049;-68
2023/10/15 06:48:22;;;;;;;9.10;2.30;;;11.00;99.90;;;;;;4980146;28;20031;-67
2023/10/15 06:50:48;;;;;;;9.50;2.40;;;11.00;99.90;;;;;;4981823;28;20046;-67
2023/10/15 06:53:14;;;;;;;6.80;2.17;;;10.90;99.90;;;;;;4983205;28;20030;-68
2023/10/15 06:55:45;;;;;;;5.13;2.10;;;11.00;99.90;;;;;;5017206;28;20092;-67
2023/10/15 06:58:11;;;;;;;9.13;2.75;;;11.00;99.90;;;;;;4986259;28;20040;-67
2023/10/15 07:00:38;;;;;;;12.52;2.45;;;11.00;99.90;;;;;;4985493;28;20030;-67
2023/10/15 07:03:04;;;;;;;6.47;2.00;;;11.20;99.90;;;;;;4988865;28;20035;-67
2023/10/15 07:05:29;;;;;;;11.35;2.63;;;11.20;99.90;;;;;;4986660;28;20037;-67
2023/10/15 07:07:58;;;;;;;10.50;2.37;;;11.20;99.90;;;;;;4984488;28;20038;-67
2023/10/15 07:10:24;;;;;;;9.15;2.50;;;11.30;99.90;;;;;;4990896;28;20498;-66
2023/10/15 07:12:50;;;;;;;7.30;3.15;;;12.00;99.90;;;;;;4994270;28;20514;-69
2023/10/15 07:15:16;;;;;;;6.90;2.63;;;12.20;99.90;;;;;;4989788;28;20062;-68
2023/10/15 07:17:43;;;;;;;4.25;2.17;;;13.00;99.90;;;;;;4992783;28;20428;-68
2023/10/15 07:20:21;;;;;;;7.18;2.05;;;13.50;99.90;;;;;;4989343;28;20513;-67
2023/10/15 07:22:51;;;;;;;9.30;2.33;;;13.80;99.90;;;;;;5013889;28;20026;-67
2023/10/15 07:25:21;;;;;;;12.80;2.08;;;13.90;99.90;;;;;;4988205;28;20035;-66
2023/10/15 07:27:48;;;;;;;11.88;3.00;;;13.60;99.90;;;;;;4993140;28;20125;-70
2023/10/15 07:30:16;;;;;;;16.65;2.70;;;13.30;99.90;;;;;;4989386;28;20027;-67
2023/10/15 07:32:45;;;;;;;9.82;2.60;;;13.20;99.90;;;;;;4988824;28;20047;-67
2023/10/15 07:35:13;;;;;;;7.68;1.90;;;13.40;99.90;;;;;;4987163;28;20022;-67
2023/10/15 07:37:44;;;;;;;17.10;2.97;;;13.60;99.90;;;;;;4990674;28;20956;-67
2023/10/15 07:40:17;;;;;;;6.18;2.17;;;13.80;99.90;;;;;;4995020;28;20026;-68
2023/10/15 07:42:44;;;;;;;9.90;2.33;;;14.20;99.90;;;;;;4989561;28;20038;-68
2023/10/15 07:45:10;;;;;;;12.35;2.53;;;14.40;99.90;;;;;;4975217;28;20030;-67
2023/10/15 07:47:39;;;;;;;6.85;2.25;;;14.60;98.80;;;;;;4982824;28;20061;-67
2023/10/15 07:50:07;;;;;;;10.05;2.78;;;14.60;99.10;;;;;;4980269;28;20034;-66
2023/10/15 07:52:33;;;;;;;12.73;2.33;;;15.00;98.70;;;;;;4987436;28;20425;-68
2023/10/15 07:55:02;;;;;;;12.63;2.47;;;15.20;98.20;;;;;;4984000;28;20056;-66
2023/10/15 07:57:28;;;;;;;6.88;2.33;;;15.50;97.40;;;;;;4988867;28;20089;-67
2023/10/15 07:59:57;;;;;;;10.65;2.50;;;16.30;95.70;;;;;;4956627;28;20022;-67
2023/10/15 08:02:23;;;;;;;7.82;2.70;;;17.60;91.70;;;;;;4984662;28;20061;-67
2023/10/15 08:04:53;;;;;;;16.20;2.77;;;18.30;90.00;;;;;;4984796;28;20058;-68
2023/10/15 08:07:20;;;;;;;7.20;2.42;;;18.80;86.70;;;;;;5016146;28;20035;-68
2023/10/15 08:09:45;;;;;;;13.13;2.60;;;19.20;86.10;;;;;;4983943;28;20416;-68
2023/10/15 08:12:11;;;;;;;6.23;2.63;;;19.50;83.90;;;;;;4983807;28;20043;-71
2023/10/15 08:14:37;;;;;;;7.50;3.33;;;20.20;80.10;;;;;;4985527;28;20045;-69
2023/10/15 08:17:03;;;;;;;5.22;2.67;;;20.00;78.40;;;;;;4982601;28;20030;-68
2023/10/15 08:19:29;;;;;;;8.37;2.73;;;19.80;78.90;;;;;;4983277;28;20120;-68
2023/10/15 08:21:54;;;;;;;5.72;2.42;;;20.70;76.70;;;;;;4978419;28;20030;-71
2023/10/15 08:24:20;;;;;;;7.87;2.93;;;21.10;78.80;;;;;;4985501;28;20030;-69
2023/10/15 08:26:47;;;;;;;11.37;2.40;;;21.90;74.40;;;;;;4986397;28;20461;-68
2023/10/15 08:29:13;;;;;;;5.88;2.22;;;20.60;75.80;;;;;;4983253;28;20284;-68
2023/10/15 08:31:38;;;;;;;;;;;19.70;79.00;;;;;;4987021;28;20159;-67
2023/10/15 08:34:04;;;;;;;8.15;2.30;;;19.70;79.40;;;;;;4983142;28;19914;-73
2023/10/15 08:36:30;;;;;;;7.65;2.45;;;19.60;81.00;;;;;;4987574;28;20037;-68
2023/10/15 08:38:55;;;;;;;5.35;2.50;;;20.50;81.00;;;;;;4982361;28;20038;-69
2023/10/15 08:41:24;;;;;;;8.00;2.35;;;21.10;80.00;;;;;;4982618;28;21018;-67
2023/10/15 08:43:51;;;;;;;7.75;2.78;;;21.50;76.70;;;;;;5016293;28;20038;-66
2023/10/15 08:46:22;;;;;;;4.50;2.15;;;21.50;76.30;;;;;;4986923;28;20121;-67
2023/10/15 08:48:49;;;;;;;7.15;2.90;;;21.40;76.70;;;;;;4980157;28;20515;-66
2023/10/15 08:51:26;;;;;;;8.32;2.33;;;21.40;76.20;;;;;;4985754;28;20041;-66
2023/10/15 08:53:53;;;;;;;5.78;2.47;;;21.50;75.00;;;;;;4981298;28;20605;-65
2023/10/15 08:56:21;;;;;;;6.72;2.30;;;21.70;74.90;;;;;;4985634;28;20026;-65
2023/10/15 08:58:52;;;;;;;7.70;2.55;;;22.10;74.00;;;;;;4983213;28;20034;-66
2023/10/15 09:01:21;;;;;;;7.88;2.42;;;21.90;74.00;;;;;;4984335;28;20036;-65
2023/10/15 09:03:47;;;;;;;7.82;2.08;;;21.40;74.00;;;;;;4983821;28;20120;-66
2023/10/15 09:06:14;;;;;;;8.05;3.28;;;21.90;72.90;;;;;;4978636;28;20077;-66
2023/10/15 09:08:43;;;;;;;7.80;2.20;;;22.00;72.10;;;;;;4985459;28;20590;-68
2023/10/15 09:11:10;;;;;;;11.57;2.50;;;21.50;71.90;;;;;;4984723;28;20088;-66
2023/10/15 09:13:36;;;;;;;6.55;2.38;;;21.50;73.90;;;;;;4982706;28;21073;-65
2023/10/15 09:16:04;;;;;;;8.20;2.67;;;21.90;71.30;;;;;;5019250;28;20505;-66
2023/10/15 09:18:35;;;;;;;7.47;2.17;;;22.00;70.20;;;;;;4984228;28;20126;-66
2023/10/15 09:21:04;;;;;;;7.75;2.13;;;22.20;69.10;;;;;;4987757;28;20030;-66
2023/10/15 09:23:37;;;;;;;8.63;3.45;;;21.70;69.40;;;;;;4981428;28;20069;-65
2023/10/15 09:26:06;;;;;;;5.35;1.90;;;21.30;72.90;;;;;;4985290;28;20040;-65
2023/10/15 09:28:35;;;;;;;6.93;1.80;;;21.10;69.50;;;;;;4989399;28;20049;-66
2023/10/15 09:31:09;;;;;;;11.52;2.35;;;20.50;74.10;;;;;;4979724;28;20030;-66
2023/10/15 09:33:36;;;;;;;8.45;1.92;;;20.40;72.20;;;;;;4985375;28;20541;-66
2023/10/15 09:36:03;;;;;;;7.40;1.90;;;19.80;74.10;;;;;;4982616;28;20410;-67
2023/10/15 09:38:31;;;;;;;4.07;1.45;;;19.30;72.30;;;;;;4980086;28;20081;-68
2023/10/15 09:41:01;;;;;;;6.28;1.92;;;18.90;74.20;;;;;;4986080;28;20450;-67
2023/10/15 09:43:35;;;;;;;5.82;1.77;;;18.40;73.40;;;;;;4988438;28;20023;-70
2023/10/15 09:46:03;;;;;;;8.05;1.90;;;18.40;74.90;;;;;;4986221;28;20588;-67
2023/10/15 09:48:33;;;;;;;5.93;1.70;;;18.30;76.00;;;;;;2373404;28;10000861;-72
2023/10/15 09:50:59;;;;;;;5.20;1.80;;;18.00;76.10;;;;;;4151647;28;10000860;-67
2023/10/15 09:53:28;;;;;;;5.70;1.95;;;17.90;75.70;;;;;;4989663;28;20038;-69
2023/10/15 09:55:57;;;;;;;6.88;2.25;;;17.70;74.90;;;;;;4984597;28;20057;-71
2023/10/15 09:58:24;;;;;;;7.85;1.83;;;17.50;74.90;;;;;;4986826;28;20037;-70
2023/10/15 10:01:25;;;;;;;6.75;1.95;;;17.40;74.90;;;;;;4992101;28;20484;-71
2023/10/15 10:04:18;;;;;;;9.55;1.98;;;17.40;76.10;;;;;;4984465;28;20096;-70
2023/10/15 10:06:47;;;;;;;11.77;2.50;;;17.30;76.00;;;;;;5017832;28;20090;-70
2023/10/15 10:09:36;;;;;;;6.35;1.88;;;17.30;73.60;;;;;;4983374;28;20510;-67
2023/10/15 10:12:26;;;;;;;11.18;1.98;;;17.50;75.80;;;;;;4985370;28;20570;-70
2023/10/15 10:15:29;;;;;;;8.32;1.75;;;17.50;75.80;;;;;;4986789;28;20034;-68
2023/10/15 10:17:55;;;;;;;6.95;1.92;;;17.40;74.90;;;;;;4987316;28;20038;-70
2023/10/15 10:20:35;;;;;;;9.75;1.90;;;17.40;74.80;;;;;;5019035;28;20057;-66
2023/10/15 10:23:07;;;;;;;5.53;1.45;;;17.50;74.90;;;;;;4981488;28;20034;-66
2023/10/15 10:25:45;;;;;;;5.47;1.67;;;17.70;76.00;;;;;;5014400;28;20133;-66
2023/10/15 10:28:16;;;;;;;7.07;1.95;;;17.60;73.60;;;;;;4986238;28;20034;-66
2023/10/15 10:30:58;;;;;;;9.07;2.20;;;17.60;74.30;;;;;;4981647;28;20038;-65
2023/10/15 10:33:40;;;;;;;7.03;1.77;;;17.50;73.90;;;;;;4990311;28;20651;-66
2023/10/15 10:36:27;;;;;;;7.78;1.48;;;17.50;72.70;;;;;;4990852;28;20566;-66
2023/10/15 10:39:13;;;;;;;4.50;1.67;;;17.50;72.70;;;;;;4989002;28;20038;-67
2023/10/15 10:41:39;;;;;;;10.45;1.55;;;17.60;74.20;;;;;;4986367;28;20034;-66
2023/10/15 10:44:06;;;;;;;;;;;17.30;74.10;;;;;;4990047;28;20093;-66
2023/10/15 10:46:41;;;;;;;8.23;2.08;;;17.20;74.90;;;;;;4996102;28;19913;-65
2023/10/15 10:49:13;;;;;;;3.75;1.13;;;17.10;74.70;;;;;;4979448;28;20030;-66
2023/10/15 10:51:40;;;;;;;7.05;2.28;;;17.00;76.90;;;;;;4991411;28;20046;-67
2023/10/15 10:54:05;;;;;;;6.30;1.30;;;17.10;76.80;;;;;;4990446;28;20034;-67
2023/10/15 10:56:40;;;;;;;8.57;1.53;;;17.00;76.20;;;;;;4989450;28;20435;-67
2023/10/15 10:59:07;;;;;;;3.25;1.30;;;17.10;75.60;;;;;;4989508;28;20030;-66
2023/10/15 11:01:37;;;;;;;4.38;1.38;;;16.80;75.80;;;;;;4988439;28;20040;-68
2023/10/15 11:04:06;;;;;;;9.30;1.92;;;16.60;77.00;;;;;;4987580;28;20546;-70
2023/10/15 11:06:48;;;;;;;1.75;0.70;;;16.70;77.20;;;;;;4992583;28;20025;-67
2023/10/15 11:09:22;;;;;;;4.82;1.20;;;16.60;76.10;;;;;;4988691;28;20037;-66
2023/10/15 11:11:53;;;;;;;4.25;1.20;;;16.50;77.10;;;;;;4993270;28;20034;-66
2023/10/15 11:14:23;;;;;;;3.85;1.50;;;16.50;76.80;;;;;;4988418;28;20789;-66
2023/10/15 11:16:54;;;;;;;7.97;1.38;;;16.60;75.10;;;;;;4991169;28;20026;-68
2023/10/15 11:19:25;;;;;;;2.40;0.90;;;16.50;74.00;;;;;;5021781;28;20779;-66
2023/10/15 11:21:52;;;;;;;4.50;1.02;;;16.60;74.20;;;;;;4989015;28;20030;-67
2023/10/15 11:24:19;;;;;;;3.38;1.10;;;16.80;73.80;;;;;;4992165;28;20117;-66
2023/10/15 11:26:45;;;;;;;5.07;1.15;;;16.70;72.20;;;;;;4989860;28;20030;-66
2023/10/15 11:29:18;;;;;;;5.13;1.23;;;16.80;71.60;;;;;;4988703;28;20091;-68
2023/10/15 11:31:46;;;;;;;5.07;1.27;;;16.50;71.50;;;;;;4989666;28;20528;-67
2023/10/15 11:34:13;;;;;;;6.50;1.33;;;16.50;74.00;;;;;;4994067;28;20126;-66
2023/10/15 11:36:43;;;;;;;4.07;1.00;;;16.50;74.30;;;;;;4989373;28;20030;-67
2023/10/15 11:39:18;;;;;;;3.53;1.08;;;16.50;74.60;;;;;;4985834;28;20040;-67
2023/10/15 11:41:51;;;;;;;7.03;1.30;;;16.60;74.80;;;;;;4989833;28;20037;-65
2023/10/15 11:44:18;;;;;;;3.53;0.90;;;16.30;74.00;;;;;;4988576;28;20037;-66
2023/10/15 11:46:46;;;;;;;4.03;0.75;;;16.10;74.90;;;;;;4986941;28;20038;-66
2023/10/15 11:49:12;;;;;;;4.68;1.40;;;16.10;75.80;;;;;;4984489;28;20130;-66
2023/10/15 11:51:40;;;;;;;4.97;1.02;;;16.30;74.60;;;;;;4987606;28;20038;-67
2023/10/15 11:54:09;;;;;;;3.60;0.90;;;16.50;75.50;;;;;;4984345;28;20038;-66
2023/10/15 11:56:38;;;;;;;4.00;1.20;;;16.50;73.90;;;;;;4986784;28;20572;-68
2023/10/15 11:59:03;;;;;;;4.85;1.00;;;16.40;72.90;;;;;;4979396;28;20033;-67
2023/10/15 12:01:29;;;;;;;4.70;1.02;;;16.40;72.80;;;;;;4980783;28;20039;-67
2023/10/15 12:04:00;;;;;;;3.90;1.45;;;16.40;74.30;;;;;;4984031;28;20149;-68
2023/10/15 12:06:26;;;;;;;6.85;1.00;;;16.20;72.80;;;;;;4985253;28;20106;-67
2023/10/15 12:08:52;;;;;;;2.72;0.80;;;16.10;71.90;;;;;;4988721;28;20148;-67
2023/10/15 12:11:18;;;;;;;4.88;1.15;;;16.10;72.50;;;;;;4987128;28;20450;-67
2023/10/15 12:13:47;;;;;;;8.35;1.05;;;16.40;72.50;;;;;;4987698;28;20498;-67
2023/10/15 12:16:13;;;;;;;5.35;1.00;;;16.40;70.90;;;;;;4976954;28;20034;-67
2023/10/15 12:18:39;;;;;;;3.70;1.00;;;16.60;71.30;;;;;;4993203;28;20037;-67
2023/10/15 12:21:06;;;;;;;4.53;1.23;;;16.60;70.70;;;;;;4987059;28;20092;-66
2023/10/15 12:23:31;;;;;;;5.70;1.40;;;16.50;70.00;;;;;;5017450;28;20049;-67
2023/10/15 12:25:57;;;;;;;5.63;1.40;;;16.30;70.20;;;;;;4987470;28;20038;-66
2023/10/15 12:28:23;;;;;;;4.03;1.02;;;16.40;71.50;;;;;;5019278;28;20293;-68
2023/10/15 12:30:49;;;;;;;6.87;1.10;;;16.40;71.50;;;;;;4986439;28;20038;-68
2023/10/15 12:33:15;;;;;;;4.63;0.98;;;16.70;70.90;;;;;;4987692;28;20105;-67
2023/10/15 12:35:42;;;;;;;;;;;16.90;71.10;;;;;;4988524;28;20121;-66
2023/10/15 12:38:12;;;;;;;6.28;1.05;;;17.10;72.80;;;;;;5021094;28;20056;-65
2023/10/15 12:40:38;;;;;;;3.22;0.98;;;17.20;69.80;;;;;;4988855;28;20046;-66
2023/10/15 12:43:08;;;;;;;2.58;0.90;;;17.00;68.70;;;;;;4988602;28;20605;-66
2023/10/15 12:45:34;;;;;;;3.85;0.88;;;17.10;70.40;;;;;;4989767;28;20042;-65
2023/10/15 12:48:01;;;;;;;8.10;2.17;;;17.10;68.80;;;;;;4988386;28;20053;-65
2023/10/15 12:50:28;;;;;;;2.25;0.75;;;17.20;70.70;;;;;;4986568;28;20053;-65
2023/10/15 12:52:56;;;;;;;5.93;1.02;;;17.20;69.70;;;;;;4985696;28;20046;-64
2023/10/15 12:55:23;;;;;;;2.67;0.75;;;17.10;68.90;;;;;;4985189;28;20022;-65
2023/10/15 12:57:50;;;;;;;2.25;0.95;;;17.20;70.00;;;;;;4988274;28;20065;-66
2023/10/15 13:00:17;;;;;;;4.45;0.90;;;17.30;69.60;;;;;;4983481;28;20033;-66
2023/10/15 13:02:50;;;;;;;3.42;0.90;;;17.10;68.60;;;;;;4984432;28;20061;-66
2023/10/15 13:05:17;;;;;;;4.72;0.70;;;17.00;68.80;;;;;;4985098;28;20034;-66
2023/10/15 13:07:43;;;;;;;;;;;17.10;68.70;;;;;;4994499;28;20030;-66
2023/10/15 13:10:09;;;;;;;2.75;0.98;;;17.20;67.50;;;;;;4985908;28;20459;-66